createdAt,value
2022-07-29T00:01:12.883Z,0
2022-07-29T00:02:29.173Z,0
2022-07-29T00:03:45.465Z,0
2022-07-29T00:05:01.777Z,0
2022-07-29T00:06:18.061Z,0
2022-07-29T00:07:34.358Z,0
2022-07-29T00:08:50.639Z,0
2022-07-29T00:10:06.939Z,0
2022-07-29T00:11:23.237Z,0
2022-07-29T00:12:39.525Z,0
2022-07-29T00:13:54.847Z,0
2022-07-29T00:15:11.129Z,0
2022-07-29T00:16:27.423Z,0
2022-07-29T00:17:43.722Z,0
2022-07-29T00:19:00.022Z,0
2022-07-29T00:20:16.315Z,0
2022-07-29T00:21:32.598Z,0
2022-07-29T00:22:48.892Z,0
2022-07-29T00:24:05.188Z,0
2022-07-29T00:25:21.488Z,0
2022-07-29T00:26:37.776Z,0
2022-07-29T00:27:54.078Z,0
2022-07-29T00:29:10.364Z,0
2022-07-29T00:30:25.670Z,0
2022-07-29T00:31:41.975Z,0
2022-07-29T00:32:58.271Z,0
2022-07-29T00:34:14.566Z,0
2022-07-29T00:35:30.855Z,0
2022-07-29T00:36:47.152Z,0
2022-07-29T00:38:03.445Z,0
2022-07-29T00:39:19.727Z,0
2022-07-29T00:40:36.025Z,0
2022-07-29T00:41:52.323Z,0
2022-07-29T00:43:08.624Z,0
2022-07-29T00:44:24.910Z,0
2022-07-29T00:45:41.208Z,0
2022-07-29T00:46:56.508Z,0
2022-07-29T00:48:12.801Z,0
2022-07-29T00:49:29.096Z,0
2022-07-29T00:50:45.393Z,0
2022-07-29T00:52:01.693Z,0
2022-07-29T00:53:17.991Z,0
2022-07-29T00:54:34.270Z,0
2022-07-29T00:55:50.580Z,0
2022-07-29T00:57:06.858Z,0
2022-07-29T00:58:23.153Z,0
2022-07-29T00:59:39.448Z,0
2022-07-29T01:00:55.747Z,0
2022-07-29T01:02:12.041Z,0
2022-07-29T01:03:27.344Z,0
2022-07-29T01:04:43.642Z,0
2022-07-29T01:05:59.941Z,0
2022-07-29T01:07:16.229Z,0
2022-07-29T01:08:32.528Z,0
2022-07-29T01:09:48.823Z,0
2022-07-29T01:11:05.102Z,0
2022-07-29T01:12:21.401Z,0
2022-07-29T01:13:37.693Z,0
2022-07-29T01:14:53.998Z,0
2022-07-29T01:16:10.296Z,0
2022-07-29T01:17:26.582Z,0
2022-07-29T01:18:42.878Z,0
2022-07-29T01:19:58.182Z,0
2022-07-29T01:21:14.474Z,0
2022-07-29T01:22:30.774Z,0
2022-07-29T01:23:47.059Z,0
2022-07-29T01:25:03.357Z,0
2022-07-29T01:26:19.656Z,0
2022-07-29T01:27:35.954Z,0
2022-07-29T01:28:52.232Z,0
2022-07-29T01:30:08.534Z,0
2022-07-29T01:31:24.831Z,0
2022-07-29T01:32:41.115Z,0
2022-07-29T01:33:57.412Z,0
2022-07-29T01:35:13.711Z,0
2022-07-29T01:36:29.021Z,0
2022-07-29T01:37:45.312Z,0
2022-07-29T01:39:01.606Z,0
2022-07-29T01:40:17.899Z,0
2022-07-29T01:41:34.198Z,0
2022-07-29T01:42:50.497Z,0
2022-07-29T01:44:06.772Z,0
2022-07-29T01:45:23.077Z,0
2022-07-29T01:46:39.361Z,0
2022-07-29T01:47:55.659Z,0
2022-07-29T01:49:11.966Z,0
2022-07-29T01:50:28.243Z,0
2022-07-29T01:51:44.548Z,0
2022-07-29T01:52:59.849Z,0
2022-07-29T01:54:16.147Z,0
2022-07-29T01:55:32.442Z,0
2022-07-29T01:56:48.744Z,0
2022-07-29T01:58:05.026Z,0
2022-07-29T01:59:21.330Z,0
2022-07-29T02:00:37.625Z,0
2022-07-29T02:01:53.907Z,0
2022-07-29T02:03:10.205Z,0
2022-07-29T02:04:26.490Z,0
2022-07-29T02:05:42.786Z,0
2022-07-29T02:06:59.078Z,0
2022-07-29T02:08:15.378Z,0
2022-07-29T02:09:30.689Z,0
2022-07-29T02:10:46.973Z,0
2022-07-29T02:12:03.281Z,0
2022-07-29T02:13:19.564Z,0
2022-07-29T02:14:35.874Z,0
2022-07-29T02:15:52.160Z,0
2022-07-29T02:17:08.447Z,0
2022-07-29T02:18:24.749Z,0
2022-07-29T02:19:41.048Z,0
2022-07-29T02:20:57.323Z,0
2022-07-29T02:22:13.635Z,0
2022-07-29T02:23:29.917Z,0
2022-07-29T02:24:46.209Z,0
2022-07-29T02:26:01.529Z,0
2022-07-29T02:27:17.826Z,0
2022-07-29T02:28:34.110Z,0
2022-07-29T02:29:50.404Z,0
2022-07-29T02:31:06.000Z,0
2022-07-29T02:32:23.004Z,0
2022-07-29T02:33:39.282Z,0
2022-07-29T02:34:55.572Z,0
2022-07-29T02:36:11.873Z,0
2022-07-29T02:37:28.166Z,0
2022-07-29T02:38:44.460Z,0
2022-07-29T02:40:00.748Z,0
2022-07-29T02:41:17.056Z,0
2022-07-29T02:42:32.353Z,0
2022-07-29T02:43:48.645Z,0
2022-07-29T02:45:04.952Z,0
2022-07-29T02:46:21.231Z,0
2022-07-29T02:47:37.542Z,0
2022-07-29T02:48:53.822Z,0
2022-07-29T02:50:09.148Z,0
2022-07-29T02:51:25.435Z,0
2022-07-29T02:52:41.677Z,1
2022-07-29T02:53:57.982Z,0
2022-07-29T02:55:14.266Z,0
2022-07-29T02:56:30.568Z,0
2022-07-29T02:57:46.854Z,0
2022-07-29T02:59:03.154Z,0
2022-07-29T03:00:19.395Z,1
2022-07-29T03:01:35.630Z,1
2022-07-29T03:02:51.880Z,1
2022-07-29T03:04:08.179Z,0
2022-07-29T03:05:24.464Z,0
2022-07-29T03:06:39.724Z,2
2022-07-29T03:07:55.972Z,1
2022-07-29T03:09:12.222Z,1
2022-07-29T03:10:28.516Z,0
2022-07-29T03:11:44.765Z,4
2022-07-29T03:13:01.008Z,3
2022-07-29T03:14:17.247Z,2
2022-07-29T03:15:33.481Z,1
2022-07-29T03:16:49.734Z,2
2022-07-29T03:18:05.956Z,4
2022-07-29T03:19:22.196Z,5
2022-07-29T03:20:38.439Z,6
2022-07-29T03:21:54.687Z,8
2022-07-29T03:23:09.950Z,6
2022-07-29T03:25:42.429Z,7
2022-07-29T03:26:58.662Z,8
2022-07-29T03:28:14.894Z,9
2022-07-29T03:29:31.132Z,7
2022-07-29T03:30:47.378Z,15
2022-07-29T03:32:03.624Z,17
2022-07-29T03:33:19.851Z,13
2022-07-29T03:34:36.104Z,17
2022-07-29T03:35:52.347Z,19
2022-07-29T03:37:08.586Z,22
2022-07-29T03:38:24.807Z,27
2022-07-29T03:39:40.064Z,26
2022-07-29T03:40:56.319Z,28
2022-07-29T03:42:12.557Z,32
2022-07-29T03:43:28.783Z,31
2022-07-29T03:44:45.034Z,34
2022-07-29T03:46:01.277Z,42
2022-07-29T03:47:17.513Z,44
2022-07-29T03:48:33.761Z,46
2022-07-29T03:49:49.994Z,47
2022-07-29T03:51:06.238Z,48
2022-07-29T03:52:22.465Z,51
2022-07-29T03:53:38.710Z,53
2022-07-29T03:54:54.953Z,57
2022-07-29T03:56:10.196Z,58
2022-07-29T03:57:26.444Z,66
2022-07-29T03:58:42.684Z,70
2022-07-29T03:59:58.935Z,71
2022-07-29T04:01:15.156Z,80
2022-07-29T04:02:31.402Z,84
2022-07-29T04:03:47.638Z,94
2022-07-29T04:05:03.883Z,102
2022-07-29T04:06:20.121Z,110
2022-07-29T04:07:36.372Z,117
2022-07-29T04:08:52.604Z,133
2022-07-29T04:10:08.834Z,148
2022-07-29T04:11:25.085Z,160
2022-07-29T04:12:40.339Z,169
2022-07-29T04:13:56.580Z,179
2022-07-29T04:15:12.828Z,187
2022-07-29T04:16:29.057Z,199
2022-07-29T04:17:45.307Z,208
2022-07-29T04:19:01.545Z,216
2022-07-29T04:20:17.773Z,224
2022-07-29T04:21:34.017Z,229
2022-07-29T04:22:50.259Z,234
2022-07-29T04:24:06.499Z,235
2022-07-29T04:25:22.735Z,238
2022-07-29T04:26:38.969Z,248
2022-07-29T04:27:55.215Z,255
2022-07-29T04:29:10.465Z,257
2022-07-29T04:30:26.716Z,269
2022-07-29T04:31:42.953Z,286
2022-07-29T04:32:59.181Z,294
2022-07-29T04:34:15.431Z,310
2022-07-29T04:35:31.678Z,323
2022-07-29T04:36:47.913Z,325
2022-07-29T04:38:04.145Z,341
2022-07-29T04:39:20.382Z,366
2022-07-29T04:40:36.621Z,394
2022-07-29T04:41:52.871Z,418
2022-07-29T04:43:09.104Z,459
2022-07-29T04:44:25.356Z,493
2022-07-29T04:45:40.603Z,512
2022-07-29T04:46:56.838Z,515
2022-07-29T04:48:13.087Z,528
2022-07-29T04:49:29.333Z,550
2022-07-29T04:50:45.561Z,592
2022-07-29T04:52:01.800Z,617
2022-07-29T04:53:18.047Z,636
2022-07-29T04:54:34.287Z,648
2022-07-29T04:55:50.533Z,671
2022-07-29T04:57:06.756Z,686
2022-07-29T04:58:23.012Z,709
2022-07-29T04:59:39.235Z,737
2022-07-29T05:00:55.478Z,773
2022-07-29T05:02:10.745Z,815
2022-07-29T05:03:26.973Z,850
2022-07-29T05:04:43.207Z,881
2022-07-29T05:05:59.460Z,913
2022-07-29T05:07:15.685Z,947
2022-07-29T05:09:48.182Z,1017
2022-07-29T05:11:04.420Z,1105
2022-07-29T05:12:20.659Z,1057
2022-07-29T05:13:36.892Z,1264
2022-07-29T05:14:53.142Z,1271
2022-07-29T05:16:09.383Z,1289
2022-07-29T05:17:25.614Z,1326
2022-07-29T05:18:40.861Z,1349
2022-07-29T05:19:57.111Z,1394
2022-07-29T05:21:13.347Z,1437
2022-07-29T05:22:29.591Z,1470
2022-07-29T05:23:45.831Z,1529
2022-07-29T05:25:02.071Z,1176
2022-07-29T05:26:18.308Z,1568
2022-07-29T05:27:34.551Z,1919
2022-07-29T05:28:50.785Z,1910
2022-07-29T05:30:07.029Z,1953
2022-07-29T05:31:23.270Z,1835
2022-07-29T05:32:39.513Z,1984
2022-07-29T05:33:55.752Z,1961
2022-07-29T05:35:11.004Z,1990
2022-07-29T05:36:27.237Z,1970
2022-07-29T05:37:43.477Z,2101
2022-07-29T05:38:59.716Z,2592
2022-07-29T05:40:15.969Z,2070
2022-07-29T05:41:32.210Z,1861
2022-07-29T05:42:48.446Z,1805
2022-07-29T05:44:04.690Z,1789
2022-07-29T05:45:20.927Z,1743
2022-07-29T05:46:37.153Z,1676
2022-07-29T05:47:53.390Z,1698
2022-07-29T05:49:09.000Z,1684
2022-07-29T05:50:25.889Z,1636
2022-07-29T05:51:41.137Z,1671
2022-07-29T05:52:57.364Z,1586
2022-07-29T05:54:13.610Z,1555
2022-07-29T05:55:29.850Z,1517
2022-07-29T05:56:46.085Z,1467
2022-07-29T05:58:02.342Z,1456
2022-07-29T05:59:18.570Z,1441
2022-07-29T06:00:34.805Z,1436
2022-07-29T06:01:51.047Z,1432
2022-07-29T06:03:07.299Z,1421
2022-07-29T06:04:23.542Z,1398
2022-07-29T06:05:39.774Z,1371
2022-07-29T06:06:56.012Z,1335
2022-07-29T06:08:11.265Z,1325
2022-07-29T06:09:27.500Z,1334
2022-07-29T06:10:43.757Z,1343
2022-07-29T06:11:59.992Z,1385
2022-07-29T06:13:16.235Z,1417
2022-07-29T06:14:32.460Z,1438
2022-07-29T06:15:48.706Z,1450
2022-07-29T06:17:04.955Z,1476
2022-07-29T06:18:21.185Z,1500
2022-07-29T06:19:37.421Z,1526
2022-07-29T06:20:53.661Z,1531
2022-07-29T06:22:09.900Z,1510
2022-07-29T06:23:26.144Z,1540
2022-07-29T06:24:41.413Z,1585
2022-07-29T06:25:57.651Z,1678
2022-07-29T06:27:13.886Z,1784
2022-07-29T06:28:30.130Z,1903
2022-07-29T06:29:46.356Z,1982
2022-07-29T06:31:02.608Z,2002
2022-07-29T06:32:18.840Z,1978
2022-07-29T06:33:35.082Z,1965
2022-07-29T06:34:51.318Z,1939
2022-07-29T06:36:07.565Z,2010
2022-07-29T06:37:23.805Z,2029
2022-07-29T06:38:40.031Z,1633
2022-07-29T06:39:56.270Z,2207
2022-07-29T06:41:11.532Z,3071
2022-07-29T06:42:27.772Z,2236
2022-07-29T06:43:44.009Z,2006
2022-07-29T06:45:00.265Z,1829
2022-07-29T06:46:16.496Z,1692
2022-07-29T06:47:32.735Z,1683
2022-07-29T06:48:48.979Z,1944
2022-07-29T06:50:05.219Z,1825
2022-07-29T06:51:21.461Z,1773
2022-07-29T06:52:37.701Z,1763
2022-07-29T06:53:53.938Z,1832
2022-07-29T06:55:10.178Z,1921
2022-07-29T06:56:26.404Z,1938
2022-07-29T06:57:41.661Z,1998
2022-07-29T07:00:14.158Z,2198
2022-07-29T07:01:30.392Z,2305
2022-07-29T07:02:46.631Z,2316
2022-07-29T07:04:02.876Z,2393
2022-07-29T07:05:18.136Z,2413
2022-07-29T07:06:34.364Z,2811
2022-07-29T07:07:50.616Z,2796
2022-07-29T07:09:06.840Z,2882
2022-07-29T07:10:23.081Z,2989
2022-07-29T07:11:39.336Z,1793
2022-07-29T07:12:55.577Z,2930
2022-07-29T07:14:11.812Z,4658
2022-07-29T07:15:28.051Z,4265
2022-07-29T07:16:44.294Z,2871
2022-07-29T07:18:00.522Z,2578
2022-07-29T07:19:16.763Z,3874
2022-07-29T07:20:33.011Z,4446
2022-07-29T07:21:48.267Z,3692
2022-07-29T07:23:04.502Z,4605
2022-07-29T07:24:20.737Z,3929
2022-07-29T07:25:36.993Z,4586
2022-07-29T07:26:53.216Z,4995
2022-07-29T07:28:09.457Z,4947
2022-07-29T07:29:25.707Z,4832
2022-07-29T07:30:41.933Z,4806
2022-07-29T07:31:58.183Z,6144
2022-07-29T07:33:14.425Z,3508
2022-07-29T07:34:30.673Z,4598
2022-07-29T07:35:46.899Z,6614
2022-07-29T07:37:03.145Z,4190
2022-07-29T07:39:34.644Z,3925
2022-07-29T07:40:50.880Z,3456
2022-07-29T07:42:07.118Z,3865
2022-07-29T07:44:39.599Z,3224
2022-07-29T07:45:55.838Z,4221
2022-07-29T07:47:12.079Z,2324
2022-07-29T07:48:28.314Z,5418
2022-07-29T07:49:44.563Z,2937
2022-07-29T07:51:00.798Z,5988
2022-07-29T07:52:17.034Z,4164
2022-07-29T07:53:33.272Z,3185
2022-07-29T07:54:48.531Z,4334
2022-07-29T07:56:04.774Z,4548
2022-07-29T07:57:21.007Z,4571
2022-07-29T07:58:37.259Z,4577
2022-07-29T07:59:53.490Z,4636
2022-07-29T08:01:09.740Z,4745
2022-07-29T08:02:25.973Z,4908
2022-07-29T08:03:42.200Z,4948
2022-07-29T08:04:58.439Z,4698
2022-07-29T08:06:14.695Z,5683
2022-07-29T08:07:30.925Z,3395
2022-07-29T08:08:47.158Z,4252
2022-07-29T08:10:03.406Z,4293
2022-07-29T08:11:18.655Z,4274
2022-07-29T08:12:34.894Z,4131
2022-07-29T08:13:51.137Z,4100
2022-07-29T08:15:07.389Z,4072
2022-07-29T08:16:23.622Z,4022
2022-07-29T08:17:39.866Z,3996
2022-07-29T08:18:56.095Z,3986
2022-07-29T08:20:12.349Z,4050
2022-07-29T08:22:44.819Z,4046
2022-07-29T08:24:01.052Z,4026
2022-07-29T08:25:17.289Z,4015
2022-07-29T08:26:33.543Z,3984
2022-07-29T08:27:48.792Z,3968
2022-07-29T08:29:05.032Z,3972
2022-07-29T08:30:21.265Z,4009
2022-07-29T08:31:37.521Z,4031
2022-07-29T08:32:53.756Z,3998
2022-07-29T08:34:09.989Z,4032
2022-07-29T08:35:26.228Z,4016
2022-07-29T08:36:42.468Z,4033
2022-07-29T08:37:58.716Z,4057
2022-07-29T08:39:14.961Z,4069
2022-07-29T08:40:31.195Z,4086
2022-07-29T08:41:47.429Z,4134
2022-07-29T08:43:03.678Z,4182
2022-07-29T08:44:18.928Z,4215
2022-07-29T08:45:35.178Z,4251
2022-07-29T08:46:51.411Z,4268
2022-07-29T08:48:07.640Z,4351
2022-07-29T08:49:23.887Z,4301
2022-07-29T08:50:40.133Z,4320
2022-07-29T08:51:56.368Z,4354
2022-07-29T08:53:12.610Z,4412
2022-07-29T08:54:28.854Z,4499
2022-07-29T08:55:45.076Z,4602
2022-07-29T08:57:01.323Z,4615
2022-07-29T08:58:17.565Z,4681
2022-07-29T08:59:33.797Z,4708
2022-07-29T09:00:49.068Z,4910
2022-07-29T09:02:05.297Z,5117
2022-07-29T09:03:21.532Z,5323
2022-07-29T09:04:37.783Z,5515
2022-07-29T09:05:54.029Z,6423
2022-07-29T09:07:10.265Z,5448
2022-07-29T09:08:26.510Z,5842
2022-07-29T09:09:42.732Z,6910
2022-07-29T09:10:58.980Z,7064
2022-07-29T09:13:31.465Z,6356
2022-07-29T09:14:47.711Z,7672
2022-07-29T09:16:03.937Z,7139
2022-07-29T09:17:19.204Z,9085
2022-07-29T09:18:35.438Z,7586
2022-07-29T09:19:51.681Z,8817
2022-07-29T09:21:07.914Z,8429
2022-07-29T09:22:24.156Z,8096
2022-07-29T09:23:40.397Z,8492
2022-07-29T09:24:56.641Z,7478
2022-07-29T09:26:12.874Z,8976
2022-07-29T09:27:29.116Z,8851
2022-07-29T09:28:45.360Z,8389
2022-07-29T09:30:01.600Z,8159
2022-07-29T09:31:17.840Z,7995
2022-07-29T09:32:34.068Z,8898
2022-07-29T09:33:49.327Z,8339
2022-07-29T09:35:05.571Z,8271
2022-07-29T09:36:21.807Z,7931
2022-07-29T09:38:54.296Z,7903
2022-07-29T09:40:10.528Z,7852
2022-07-29T09:41:26.762Z,8415
2022-07-29T09:42:43.007Z,8470
2022-07-29T09:43:59.258Z,8237
2022-07-29T09:45:15.498Z,8209
2022-07-29T09:46:31.731Z,8110
2022-07-29T09:47:47.970Z,7760
2022-07-29T09:49:04.203Z,7994
2022-07-29T09:50:19.473Z,7877
2022-07-29T09:51:35.711Z,7520
2022-07-29T09:52:51.939Z,7425
2022-07-29T09:54:08.187Z,7301
2022-07-29T09:55:24.425Z,7316
2022-07-29T09:56:40.660Z,6050
2022-07-29T09:57:56.906Z,8904
2022-07-29T09:59:13.150Z,7533
2022-07-29T10:00:29.396Z,8343
2022-07-29T10:03:01.876Z,7596
2022-07-29T10:04:18.117Z,7703
2022-07-29T10:05:34.346Z,7400
2022-07-29T10:06:49.605Z,7341
2022-07-29T10:08:05.842Z,7503
2022-07-29T10:09:22.079Z,7445
2022-07-29T10:10:38.326Z,9252
2022-07-29T10:11:54.570Z,6755
2022-07-29T10:13:10.799Z,6651
2022-07-29T10:14:27.049Z,6021
2022-07-29T10:15:43.284Z,7458
2022-07-29T10:16:59.527Z,6624
2022-07-29T10:18:15.755Z,6773
2022-07-29T10:19:32.009Z,6759
2022-07-29T10:20:48.244Z,6297
2022-07-29T10:22:04.491Z,6340
2022-07-29T10:23:19.736Z,5816
2022-07-29T10:24:35.989Z,5827
2022-07-29T10:25:52.217Z,5310
2022-07-29T10:27:08.456Z,5428
2022-07-29T10:28:24.701Z,5239
2022-07-29T10:29:40.945Z,5006
2022-07-29T10:30:57.185Z,5145
2022-07-29T10:32:13.000Z,5005
2022-07-29T10:33:29.664Z,4994
2022-07-29T10:34:45.893Z,5013
2022-07-29T10:36:02.131Z,5038
2022-07-29T10:37:18.384Z,5127
2022-07-29T10:38:34.623Z,4871
2022-07-29T10:39:49.869Z,4959
2022-07-29T10:41:06.108Z,5010
2022-07-29T10:42:22.350Z,4708
2022-07-29T10:43:38.596Z,5086
2022-07-29T10:44:54.828Z,5165
2022-07-29T10:46:11.071Z,5076
2022-07-29T10:47:27.312Z,4873
2022-07-29T10:48:43.553Z,4778
2022-07-29T10:49:59.795Z,4871
2022-07-29T10:51:16.041Z,5157
2022-07-29T10:52:32.273Z,4959
2022-07-29T10:53:48.519Z,4820
2022-07-29T10:55:04.760Z,4995
2022-07-29T10:56:20.018Z,4983
2022-07-29T10:57:36.244Z,4946
2022-07-29T10:58:52.484Z,4820
2022-07-29T11:00:08.738Z,4823
2022-07-29T11:01:24.974Z,5234
2022-07-29T11:02:41.203Z,4877
2022-07-29T11:03:57.453Z,5045
2022-07-29T11:05:13.697Z,5026
2022-07-29T11:06:29.942Z,5330
2022-07-29T11:07:46.169Z,5009
2022-07-29T11:09:02.421Z,5103
2022-07-29T11:10:18.658Z,5104
2022-07-29T11:11:34.896Z,5091
2022-07-29T11:12:50.145Z,5211
2022-07-29T11:14:06.380Z,5384
2022-07-29T11:15:22.623Z,5193
2022-07-29T11:16:38.874Z,5457
2022-07-29T11:17:55.100Z,4937
2022-07-29T11:19:11.355Z,4303
2022-07-29T11:20:26.616Z,3877
2022-07-29T11:21:42.840Z,4062
2022-07-29T11:22:59.097Z,4745
2022-07-29T11:24:15.324Z,5083
2022-07-29T11:25:31.578Z,5217
2022-07-29T11:28:04.051Z,5410
2022-07-29T11:29:20.289Z,5469
2022-07-29T11:30:36.527Z,6011
2022-07-29T11:33:09.019Z,5448
2022-07-29T11:34:25.246Z,5317
2022-07-29T11:35:41.490Z,4999
2022-07-29T11:36:56.754Z,5087
2022-07-29T11:38:12.985Z,4208
2022-07-29T11:39:29.221Z,4474
2022-07-29T11:40:45.463Z,5178
2022-07-29T11:42:01.701Z,5250
2022-07-29T11:43:17.941Z,5224
2022-07-29T11:44:34.191Z,5228
2022-07-29T11:45:50.426Z,4951
2022-07-29T11:47:06.659Z,5096
2022-07-29T11:48:22.903Z,4973
2022-07-29T11:49:39.137Z,4913
2022-07-29T11:50:55.395Z,4774
2022-07-29T11:52:11.632Z,4840
2022-07-29T11:53:26.884Z,4683
2022-07-29T11:54:43.112Z,4713
2022-07-29T11:55:59.351Z,4502
2022-07-29T11:57:15.605Z,4835
2022-07-29T11:58:31.839Z,4564
2022-07-29T11:59:48.073Z,4519
2022-07-29T12:01:04.325Z,4498
2022-07-29T12:02:20.570Z,4439
2022-07-29T12:03:36.805Z,4560
2022-07-29T12:04:53.048Z,4462
2022-07-29T12:06:09.284Z,4517
2022-07-29T12:07:25.523Z,4734
2022-07-29T12:08:41.755Z,4364
2022-07-29T12:09:57.014Z,3915
2022-07-29T12:11:13.264Z,4147
2022-07-29T12:12:29.498Z,4568
2022-07-29T12:13:45.741Z,4256
2022-07-29T12:15:01.979Z,4475
2022-07-29T12:16:18.212Z,4551
2022-07-29T12:17:34.459Z,4557
2022-07-29T12:18:50.699Z,4606
2022-07-29T12:20:06.934Z,4668
2022-07-29T12:21:23.177Z,4654
2022-07-29T12:22:39.424Z,4681
2022-07-29T12:23:55.660Z,4779
2022-07-29T12:25:11.906Z,4590
2022-07-29T12:26:27.142Z,4675
2022-07-29T12:27:43.397Z,4683
2022-07-29T12:28:59.636Z,4426
2022-07-29T12:30:15.867Z,4535
2022-07-29T12:31:32.113Z,4468
2022-07-29T12:32:48.352Z,4753
2022-07-29T12:34:04.599Z,4191
2022-07-29T12:35:20.827Z,4564
2022-07-29T12:36:37.064Z,4463
2022-07-29T12:37:53.318Z,3964
2022-07-29T12:39:09.550Z,4472
2022-07-29T12:41:42.029Z,4327
2022-07-29T12:42:57.295Z,4637
2022-07-29T12:44:13.534Z,4704
2022-07-29T12:45:29.762Z,4830
2022-07-29T12:46:46.006Z,4986
2022-07-29T12:48:02.254Z,4917
2022-07-29T12:49:18.495Z,4960
2022-07-29T12:50:34.732Z,5058
2022-07-29T12:51:50.974Z,4783
2022-07-29T12:53:07.197Z,4546
2022-07-29T12:54:23.447Z,4500
2022-07-29T12:55:39.681Z,4414
2022-07-29T12:56:55.931Z,3652
2022-07-29T12:58:12.170Z,3645
2022-07-29T12:59:27.415Z,3407
2022-07-29T13:00:43.658Z,3251
2022-07-29T13:01:59.911Z,3112
2022-07-29T13:03:16.146Z,3076
2022-07-29T13:04:32.393Z,3084
2022-07-29T13:05:48.623Z,3043
2022-07-29T13:07:04.868Z,3283
2022-07-29T13:08:21.102Z,3487
2022-07-29T13:09:37.339Z,3367
2022-07-29T13:10:53.586Z,3395
2022-07-29T13:12:09.826Z,3254
2022-07-29T13:13:26.066Z,3259
2022-07-29T13:14:42.299Z,3143
2022-07-29T13:15:57.559Z,3053
2022-07-29T13:17:13.805Z,2840
2022-07-29T13:18:30.039Z,2760
2022-07-29T13:19:46.279Z,2631
2022-07-29T13:22:18.761Z,2550
2022-07-29T13:23:34.990Z,2526
2022-07-29T13:24:51.229Z,2580
2022-07-29T13:27:23.716Z,2636
2022-07-29T13:28:39.962Z,2662
2022-07-29T13:29:56.202Z,2712
2022-07-29T13:31:12.430Z,2776
2022-07-29T13:32:27.696Z,2877
2022-07-29T13:33:43.940Z,3000
2022-07-29T13:35:00.165Z,3066
2022-07-29T13:36:16.420Z,3120
2022-07-29T13:37:32.642Z,3169
2022-07-29T13:38:48.887Z,3212
2022-07-29T13:40:05.138Z,3235
2022-07-29T13:41:21.376Z,3241
2022-07-29T13:42:37.611Z,3234
2022-07-29T13:43:53.856Z,3208
2022-07-29T13:45:10.088Z,3219
2022-07-29T13:46:26.331Z,3232
2022-07-29T13:47:42.572Z,3279
2022-07-29T13:48:57.835Z,3313
2022-07-29T13:50:14.064Z,3359
2022-07-29T13:51:30.314Z,3428
2022-07-29T13:52:46.545Z,3448
2022-07-29T13:54:02.798Z,3453
2022-07-29T13:55:19.028Z,3423
2022-07-29T13:56:35.256Z,3409
2022-07-29T13:57:51.513Z,3288
2022-07-29T13:59:07.741Z,3203
2022-07-29T14:00:23.991Z,3127
2022-07-29T14:01:40.216Z,3097
2022-07-29T14:02:56.458Z,3018
2022-07-29T14:04:12.702Z,2986
2022-07-29T14:05:27.961Z,2953
2022-07-29T14:06:44.210Z,2925
2022-07-29T14:08:00.451Z,2869
2022-07-29T14:09:16.691Z,2831
2022-07-29T14:10:32.917Z,2781
2022-07-29T14:11:49.173Z,2809
2022-07-29T14:13:05.405Z,2802
2022-07-29T14:14:21.640Z,2639
2022-07-29T14:15:37.893Z,2743
2022-07-29T14:16:54.125Z,2696
2022-07-29T14:18:10.000Z,2619
2022-07-29T14:19:26.613Z,2421
2022-07-29T14:20:42.835Z,2230
2022-07-29T14:21:58.109Z,2264
2022-07-29T14:23:14.341Z,2289
2022-07-29T14:24:30.581Z,2205
2022-07-29T14:25:46.823Z,2402
2022-07-29T14:27:03.050Z,2505
2022-07-29T14:28:19.297Z,2491
2022-07-29T14:29:35.535Z,2577
2022-07-29T14:30:51.773Z,2551
2022-07-29T14:32:08.015Z,2412
2022-07-29T14:33:24.259Z,2440
2022-07-29T14:34:40.502Z,2468
2022-07-29T14:35:56.730Z,2821
2022-07-29T14:37:12.985Z,2568
2022-07-29T14:38:28.235Z,2326
2022-07-29T14:39:44.467Z,2689
2022-07-29T14:41:00.706Z,2442
2022-07-29T14:42:16.947Z,2422
2022-07-29T14:43:33.194Z,2387
2022-07-29T14:44:49.428Z,2382
2022-07-29T14:46:05.680Z,2292
2022-07-29T14:47:21.907Z,2178
2022-07-29T14:48:38.150Z,2123
2022-07-29T14:49:54.398Z,2074
2022-07-29T14:51:10.633Z,2025
2022-07-29T14:52:26.880Z,1961
2022-07-29T14:53:43.126Z,1929
2022-07-29T14:54:58.376Z,1953
2022-07-29T14:56:14.606Z,1952
2022-07-29T14:57:30.856Z,1924
2022-07-29T14:58:47.082Z,1901
2022-07-29T15:00:03.335Z,1884
2022-07-29T15:01:19.575Z,1873
2022-07-29T15:02:35.801Z,1806
2022-07-29T15:03:52.057Z,1721
2022-07-29T15:05:08.289Z,1662
2022-07-29T15:06:24.539Z,1633
2022-07-29T15:07:40.779Z,1581
2022-07-29T15:08:57.005Z,1508
2022-07-29T15:10:13.242Z,1463
2022-07-29T15:11:28.502Z,1394
2022-07-29T15:12:44.750Z,1324
2022-07-29T15:14:00.989Z,1235
2022-07-29T15:16:33.469Z,1130
2022-07-29T15:17:49.713Z,1097
2022-07-29T15:19:05.938Z,1067
2022-07-29T15:21:38.432Z,945
2022-07-29T15:22:54.656Z,895
2022-07-29T15:24:10.915Z,858
2022-07-29T15:25:27.154Z,795
2022-07-29T15:26:43.379Z,734
2022-07-29T15:27:58.645Z,687
2022-07-29T15:29:14.890Z,605
2022-07-29T15:30:31.117Z,516
2022-07-29T15:31:47.366Z,446
2022-07-29T15:33:03.611Z,387
2022-07-29T15:34:19.839Z,345
2022-07-29T15:35:35.099Z,312
2022-07-29T15:36:51.351Z,285
2022-07-29T15:38:07.573Z,264
2022-07-29T15:39:23.815Z,267
2022-07-29T15:40:40.063Z,276
2022-07-29T15:41:56.313Z,251
2022-07-29T15:44:28.784Z,289
2022-07-29T15:45:45.023Z,254
2022-07-29T15:47:01.270Z,261
2022-07-29T15:48:17.493Z,297
2022-07-29T15:49:33.736Z,299
2022-07-29T15:50:49.987Z,308
2022-07-29T15:52:05.228Z,336
2022-07-29T15:53:21.481Z,338
2022-07-29T15:54:37.709Z,401
2022-07-29T15:55:53.958Z,389
2022-07-29T15:57:10.188Z,370
2022-07-29T15:58:26.441Z,425
2022-07-29T15:59:42.671Z,618
2022-07-29T16:00:58.907Z,590
2022-07-29T16:02:15.154Z,588
2022-07-29T16:03:31.399Z,688
2022-07-29T16:04:47.627Z,695
2022-07-29T16:06:03.874Z,732
2022-07-29T16:07:20.108Z,983
2022-07-29T16:08:35.378Z,387
2022-07-29T16:09:51.603Z,885
2022-07-29T16:11:07.843Z,952
2022-07-29T16:12:24.083Z,1217
2022-07-29T16:13:40.322Z,865
2022-07-29T16:14:56.579Z,855
2022-07-29T16:16:12.807Z,872
2022-07-29T16:17:29.054Z,816
2022-07-29T16:18:45.285Z,798
2022-07-29T16:20:01.525Z,767
2022-07-29T16:21:17.760Z,726
2022-07-29T16:22:34.001Z,719
2022-07-29T16:23:50.255Z,659
2022-07-29T16:26:21.735Z,527
2022-07-29T16:27:37.989Z,494
2022-07-29T16:28:54.229Z,469
2022-07-29T16:30:10.464Z,444
2022-07-29T16:31:26.703Z,437
2022-07-29T16:32:42.944Z,435
2022-07-29T16:33:59.182Z,431
2022-07-29T16:35:15.425Z,431
2022-07-29T16:36:31.664Z,445
2022-07-29T16:37:47.893Z,436
2022-07-29T16:39:04.135Z,430
2022-07-29T16:40:20.385Z,421
2022-07-29T16:41:35.640Z,419
2022-07-29T16:42:51.872Z,410
2022-07-29T16:44:08.096Z,409
2022-07-29T16:45:24.344Z,409
2022-07-29T16:46:40.583Z,421
2022-07-29T16:47:56.819Z,420
2022-07-29T16:49:13.061Z,442
2022-07-29T16:50:29.312Z,454
2022-07-29T16:51:45.537Z,487
2022-07-29T16:53:01.779Z,508
2022-07-29T16:54:18.013Z,485
2022-07-29T16:55:34.257Z,503
2022-07-29T16:56:50.499Z,504
2022-07-29T16:58:05.752Z,519
2022-07-29T16:59:22.001Z,532
2022-07-29T17:00:38.244Z,556
2022-07-29T17:01:54.479Z,561
2022-07-29T17:03:10.710Z,548
2022-07-29T17:04:26.948Z,540
2022-07-29T17:05:43.184Z,524
2022-07-29T17:06:59.434Z,485
2022-07-29T17:08:15.664Z,442
2022-07-29T17:10:48.160Z,394
2022-07-29T17:12:04.390Z,399
2022-07-29T17:13:20.640Z,389
2022-07-29T17:14:35.890Z,378
2022-07-29T17:15:52.130Z,368
2022-07-29T17:17:08.357Z,350
2022-07-29T17:18:24.613Z,325
2022-07-29T17:19:40.857Z,294
2022-07-29T17:20:57.096Z,270
2022-07-29T17:22:13.322Z,257
2022-07-29T17:23:29.571Z,238
2022-07-29T17:24:45.811Z,219
2022-07-29T17:26:02.039Z,201
2022-07-29T17:27:18.282Z,192
2022-07-29T17:28:34.524Z,179
2022-07-29T17:29:50.767Z,168
2022-07-29T17:31:06.022Z,163
2022-07-29T17:32:22.251Z,154
2022-07-29T17:33:38.490Z,148
2022-07-29T17:34:54.747Z,135
2022-07-29T17:36:10.978Z,133
2022-07-29T17:37:27.223Z,129
2022-07-29T17:38:43.455Z,124
2022-07-29T17:39:59.697Z,114
2022-07-29T17:41:15.929Z,112
2022-07-29T17:42:32.171Z,111
2022-07-29T17:43:48.407Z,103
2022-07-29T17:45:04.667Z,98
2022-07-29T17:46:20.892Z,90
2022-07-29T17:47:36.152Z,89
2022-07-29T17:48:52.392Z,88